Time;durP1;ratioP1;P1;durP2;ratioP2;P2;SDS_P1;SDS_P2;PMS_P1;PMS_P2;Temp;Humidity;BMP_temperature;BMP_pressure;BME280_temperature;BME280_humidity;BME280_pressure;Samples;Min_cycle;Max_cycle;Signal;HPM_P1;HPM_P2
2022/06/25 00:00:06;;;;;;;2.70;2.43;;;18.30;99.90;;;;;;5046266;28;20279;-60
2022/06/25 00:02:35;;;;;;;3.00;2.80;;;18.20;99.90;;;;;;5048140;28;20223;-60
2022/06/25 00:07:50;;;;;;;4.80;2.90;;;18.20;99.90;;;;;;5048532;28;20227;-60
2022/06/25 00:10:18;;;;;;;2.90;2.30;;;18.10;99.90;;;;;;5044023;28;20192;-60
2022/06/25 00:12:47;;;;;;;2.70;2.50;;;18.10;99.90;;;;;;5044722;28;20733;-60
2022/06/25 00:15:15;;;;;;;2.90;2.77;;;18.10;99.90;;;;;;5045813;28;20315;-60
2022/06/25 00:17:45;;;;;;;2.73;2.57;;;18.00;99.90;;;;;;5045459;28;20203;-61
2022/06/25 00:20:14;;;;;;;3.37;3.00;;;17.90;99.90;;;;;;5043164;28;20680;-60
2022/06/25 00:22:43;;;;;;;4.50;2.67;;;17.90;99.90;;;;;;5077682;28;20630;-60
2022/06/25 00:25:11;;;;;;;3.80;2.50;;;17.90;99.90;;;;;;5044276;28;20556;-60
2022/06/25 00:27:39;;;;;;;3.80;2.80;;;17.80;99.90;;;;;;5045671;28;20775;-61
2022/06/25 00:30:09;;;;;;;2.87;2.67;;;17.80;99.90;;;;;;5045159;28;20254;-60
2022/06/25 00:32:37;;;;;;;3.57;3.27;;;17.80;99.90;;;;;;5047597;28;21026;-60
2022/06/25 00:35:08;;;;;;;4.20;3.00;;;17.70;99.90;;;;;;5050798;28;20278;-60
2022/06/25 00:37:36;;;;;;;2.97;2.73;;;17.70;99.90;;;;;;5049669;28;20209;-60
2022/06/25 00:40:07;;;;;;;2.70;2.57;;;17.70;99.90;;;;;;5047217;28;20709;-60
2022/06/25 00:42:36;;;;;;;2.60;2.50;;;17.70;99.90;;;;;;5051613;28;20283;-60
2022/06/25 00:45:05;;;;;;;2.93;2.70;;;17.70;99.90;;;;;;5043267;28;20211;-60
2022/06/25 00:47:33;;;;;;;3.33;3.07;;;17.70;99.90;;;;;;5045696;28;20703;-60
2022/06/25 00:50:02;;;;;;;2.70;2.47;;;17.70;99.90;;;;;;5050628;28;20236;-60
2022/06/25 00:52:34;;;;;;;7.70;3.33;;;17.70;99.90;;;;;;5051257;28;20309;-60
2022/06/25 00:55:09;;;;;;;6.57;2.87;;;17.80;99.90;;;;;;5047181;28;20201;-61
2022/06/25 00:57:40;;;;;;;3.27;2.97;;;17.70;99.90;;;;;;5040489;28;20284;-60
2022/06/25 01:00:11;;;;;;;3.07;2.87;;;17.70;99.90;;;;;;5046822;28;20849;-60
2022/06/25 01:02:41;;;;;;;6.33;2.80;;;17.70;99.90;;;;;;5043174;28;20199;-60
2022/06/25 01:05:11;;;;;;;6.53;3.27;;;17.70;99.90;;;;;;5044160;28;20226;-60
2022/06/25 01:07:45;;;;;;;5.30;3.10;;;17.70;99.90;;;;;;5041234;28;20205;-61
2022/06/25 01:10:14;;;;;;;3.27;2.87;;;17.70;99.90;;;;;;5076339;28;20226;-60
2022/06/25 01:12:43;;;;;;;3.00;2.80;;;17.60;99.90;;;;;;5042314;28;20789;-61
2022/06/25 01:15:16;;;;;;;5.47;2.93;;;17.60;99.90;;;;;;5039678;28;20280;-60
2022/06/25 01:17:45;;;;;;;3.20;2.90;;;17.60;99.90;;;;;;5042143;28;20256;-60
2022/06/25 01:20:15;;;;;;;4.10;2.90;;;17.60;99.90;;;;;;5039406;28;20194;-60
2022/06/25 01:22:45;;;;;;;3.07;2.80;;;17.50;99.90;;;;;;5040901;28;20299;-61
2022/06/25 01:25:15;;;;;;;6.50;3.47;;;17.50;99.90;;;;;;5042430;28;20710;-60
2022/06/25 01:27:43;;;;;;;4.37;3.20;;;17.40;99.90;;;;;;5041875;28;20205;-61
2022/06/25 01:30:13;;;;;;;3.40;3.00;;;17.40;99.90;;;;;;5042601;28;20252;-60
2022/06/25 01:32:41;;;;;;;2.70;2.60;;;17.40;99.90;;;;;;5024956;28;20581;-60
2022/06/25 01:35:10;;;;;;;5.83;2.77;;;17.40;99.90;;;;;;5042857;28;21005;-60
2022/06/25 01:37:39;;;;;;;2.93;2.73;;;17.40;99.90;;;;;;5038274;28;20190;-60
2022/06/25 01:40:10;;;;;;;3.30;3.00;;;17.50;99.90;;;;;;5042414;28;20723;-60
2022/06/25 01:45:25;;;;;;;3.30;3.10;;;17.40;99.90;;;;;;5039487;28;20901;-60
2022/06/25 01:47:53;;;;;;;5.30;3.20;;;17.40;99.90;;;;;;5039858;28;20248;-60
2022/06/25 01:50:22;;;;;;;2.93;2.67;;;17.30;99.90;;;;;;5041904;28;20230;-60
2022/06/25 01:52:50;;;;;;;3.10;2.70;;;17.30;99.90;;;;;;5039062;28;21031;-60
2022/06/25 01:55:21;;;;;;;3.07;2.87;;;17.40;99.90;;;;;;5040791;28;20642;-60
2022/06/25 01:57:50;;;;;;;2.90;2.70;;;17.40;99.90;;;;;;5043831;28;20222;-60
2022/06/25 02:00:22;;;;;;;6.80;3.10;;;17.40;99.90;;;;;;5057028;28;20626;-60
2022/06/25 02:02:51;;;;;;;5.13;3.10;;;17.50;99.90;;;;;;5039761;28;20206;-60
2022/06/25 02:05:56;;;;;;;3.23;2.87;;;17.50;99.90;;;;;;5042304;28;21074;-61
2022/06/25 02:08:13;;;;;;;5.07;3.10;;;17.50;99.90;;;;;;5025841;28;20327;-60
2022/06/25 02:10:44;;;;;;;4.27;2.83;;;17.40;99.90;;;;;;5043115;28;20210;-60
2022/06/25 02:13:12;;;;;;;3.07;2.87;;;17.40;99.90;;;;;;5065408;28;20847;-61
2022/06/25 02:15:41;;;;;;;3.00;2.80;;;17.50;99.90;;;;;;5047744;28;20543;-60
2022/06/25 02:18:10;;;;;;;3.90;3.07;;;17.40;99.90;;;;;;5076150;28;20211;-60
2022/06/25 02:20:40;;;;;;;3.60;3.03;;;17.40;99.90;;;;;;5045803;28;20181;-60
2022/06/25 02:23:09;;;;;;;4.70;3.00;;;17.40;99.90;;;;;;5050202;28;20204;-60
2022/06/25 02:25:38;;;;;;;5.37;3.00;;;17.40;99.90;;;;;;5045054;28;20214;-60
2022/06/25 02:28:15;;;;;;;6.63;2.90;;;17.40;99.90;;;;;;5047746;28;20197;-60
2022/06/25 02:30:47;;;;;;;3.30;3.10;;;17.40;99.90;;;;;;5040543;28;20202;-60
2022/06/25 02:33:16;;;;;;;3.03;2.83;;;17.40;99.90;;;;;;5041152;28;20195;-60
2022/06/25 02:35:45;;;;;;;3.83;2.87;;;17.40;99.90;;;;;;5042236;28;20224;-61
2022/06/25 02:38:14;;;;;;;3.10;2.93;;;17.40;99.90;;;;;;5041676;28;20196;-60
2022/06/25 02:40:42;;;;;;;4.73;3.13;;;17.40;99.90;;;;;;5036336;28;20285;-60
2022/06/25 02:43:11;;;;;;;2.87;2.67;;;17.40;99.90;;;;;;5045365;28;20193;-61
2022/06/25 02:45:41;;;;;;;5.33;2.90;;;17.30;99.90;;;;;;5072285;28;20297;-61
2022/06/25 02:48:10;;;;;;;5.63;3.10;;;17.30;99.90;;;;;;5039907;28;20232;-61
2022/06/25 02:50:38;;;;;;;3.20;2.90;;;17.30;99.90;;;;;;5043406;28;20251;-61
2022/06/25 02:53:07;;;;;;;4.30;2.30;;;17.30;99.90;;;;;;5038802;28;20211;-61
2022/06/25 03:01:09;;;;;;;9.40;3.00;;;17.50;99.90;;;;;;5040130;28;20205;-60
2022/06/25 03:03:38;;;;;;;2.67;2.50;;;17.50;99.90;;;;;;5041615;28;20285;-61
2022/06/25 03:06:09;;;;;;;5.90;2.40;;;17.50;99.90;;;;;;5053103;28;20304;-61
2022/06/25 03:08:37;;;;;;;2.93;2.10;;;17.50;99.90;;;;;;5043593;28;20283;-61
2022/06/25 03:11:08;;;;;;;3.70;2.33;;;17.50;99.90;;;;;;5039233;28;20223;-60
2022/06/25 03:13:37;;;;;;;2.47;2.20;;;17.50;99.90;;;;;;5042825;28;20203;-61
2022/06/25 03:16:08;;;;;;;3.27;2.40;;;17.50;99.90;;;;;;5034618;28;22220;-61
2022/06/25 03:18:37;;;;;;;4.03;2.17;;;17.60;99.90;;;;;;5038257;28;20208;-61
2022/06/25 03:21:06;;;;;;;3.43;2.20;;;17.60;99.90;;;;;;5047679;28;20209;-61
2022/06/25 03:23:35;;;;;;;2.50;2.03;;;17.60;99.90;;;;;;5047422;28;20233;-61
2022/06/25 03:26:07;;;;;;;3.57;2.20;;;17.60;99.90;;;;;;5045869;28;20290;-61
2022/06/25 03:28:36;;;;;;;4.83;2.10;;;17.60;99.90;;;;;;5041301;28;20228;-61
2022/06/25 03:31:04;;;;;;;2.17;2.07;;;17.70;99.90;;;;;;5041081;28;20291;-61
2022/06/25 03:33:34;;;;;;;4.53;2.17;;;17.70;99.90;;;;;;5045625;28;20200;-60
2022/06/25 03:36:03;;;;;;;3.90;2.00;;;17.80;99.90;;;;;;5034554;28;20634;-61
2022/06/25 03:38:31;;;;;;;2.97;2.10;;;17.80;99.90;;;;;;5038171;28;20378;-61
2022/06/25 03:43:43;;;;;;;2.50;1.80;;;17.80;99.90;;;;;;5038927;28;20828;-61
2022/06/25 03:46:11;;;;;;;3.70;2.00;;;17.80;99.90;;;;;;5042030;28;20223;-61
2022/06/25 03:48:41;;;;;;;3.83;1.97;;;17.80;99.90;;;;;;5039725;28;20247;-61
2022/06/25 03:51:09;;;;;;;3.50;1.80;;;17.80;99.90;;;;;;5070040;28;20720;-61
2022/06/25 03:53:38;;;;;;;2.63;1.93;;;17.80;99.90;;;;;;5036093;28;20218;-61
2022/06/25 03:56:06;;;;;;;1.83;1.70;;;17.80;99.90;;;;;;5037175;28;20285;-61
2022/06/25 03:58:35;;;;;;;3.07;2.00;;;17.90;99.90;;;;;;5039875;28;20828;-61
2022/06/25 04:01:03;;;;;;;2.63;2.10;;;17.90;99.90;;;;;;5039783;28;20258;-61
2022/06/25 04:03:32;;;;;;;3.80;1.90;;;17.90;99.90;;;;;;5040259;28;20678;-61
2022/06/25 04:06:02;;;;;;;4.23;2.00;;;17.90;99.90;;;;;;5037731;28;20242;-61
2022/06/25 04:08:30;;;;;;;2.17;1.90;;;17.90;99.90;;;;;;5038571;28;20282;-61
2022/06/25 04:10:58;;;;;;;3.70;2.20;;;17.90;99.90;;;;;;5038777;28;20615;-61
2022/06/25 04:13:27;;;;;;;2.93;2.10;;;17.90;99.90;;;;;;5041558;28;20782;-61
2022/06/25 04:15:56;;;;;;;2.00;1.90;;;17.90;99.90;;;;;;5041822;28;20291;-61
2022/06/25 04:18:27;;;;;;;1.90;1.80;;;17.90;99.90;;;;;;5038132;28;20210;-60
2022/06/25 04:20:55;;;;;;;2.80;1.77;;;17.90;99.90;;;;;;5046883;28;20892;-61
2022/06/25 04:23:25;;;;;;;4.27;2.00;;;18.00;99.90;;;;;;5072045;28;20231;-61
2022/06/25 04:25:54;;;;;;;2.37;2.27;;;18.00;99.90;;;;;;5036257;28;20232;-61
2022/06/25 04:31:08;;;;;;;2.67;1.90;;;18.00;99.90;;;;;;5045518;28;20200;-61
2022/06/25 04:33:37;;;;;;;3.33;1.80;;;18.00;99.90;;;;;;5079734;28;20216;-61
2022/06/25 04:36:06;;;;;;;4.37;2.40;;;18.00;99.90;;;;;;5047272;28;20193;-61
2022/06/25 04:38:35;;;;;;;5.93;2.13;;;18.00;99.90;;;;;;5047023;28;20263;-61
2022/06/25 04:41:04;;;;;;;2.30;2.20;;;18.00;99.90;;;;;;5039609;28;20204;-61
2022/06/25 04:43:32;;;;;;;3.27;2.10;;;18.00;99.90;;;;;;5047761;28;20275;-61
2022/06/25 04:46:03;;;;;;;5.00;2.07;;;18.10;99.90;;;;;;5060284;28;20214;-61
2022/06/25 04:48:31;;;;;;;2.50;2.17;;;18.00;99.90;;;;;;5045671;28;20282;-61
2022/06/25 04:50:59;;;;;;;3.03;2.40;;;18.10;99.90;;;;;;5045353;28;20219;-61
2022/06/25 04:53:28;;;;;;;3.90;2.20;;;18.10;99.90;;;;;;5044060;28;20815;-61
2022/06/25 04:55:58;;;;;;;5.23;1.90;;;18.10;99.90;;;;;;5045967;28;20248;-61
2022/06/25 04:58:26;;;;;;;4.47;2.03;;;18.10;99.90;;;;;;5044512;28;20196;-61
2022/06/25 05:00:55;;;;;;;2.50;2.30;;;18.10;99.90;;;;;;5078520;28;20284;-61
2022/06/25 05:03:23;;;;;;;4.47;2.13;;;18.00;99.90;;;;;;5042100;28;20199;-61
2022/06/25 05:05:52;;;;;;;3.77;2.33;;;18.00;99.90;;;;;;5039809;28;20275;-61
2022/06/25 05:08:20;;;;;;;7.80;2.50;;;18.00;99.90;;;;;;5039086;28;20194;-61
2022/06/25 05:10:49;;;;;;;5.73;2.07;;;18.00;99.90;;;;;;5038620;28;22178;-60
2022/06/25 05:13:18;;;;;;;9.47;2.27;;;18.10;99.90;;;;;;5039304;28;20277;-61
2022/06/25 05:15:47;;;;;;;1.87;1.77;;;18.20;99.90;;;;;;5037644;28;20209;-61
2022/06/25 05:18:16;;;;;;;3.90;2.00;;;18.20;99.90;;;;;;5038351;28;20201;-61
2022/06/25 05:20:45;;;;;;;3.10;2.10;;;18.20;99.90;;;;;;5049324;28;20218;-61
2022/06/25 05:23:14;;;;;;;4.30;2.10;;;18.20;99.90;;;;;;5043101;28;20188;-61
2022/06/25 05:25:43;;;;;;;3.47;2.20;;;18.20;99.90;;;;;;5039856;28;20199;-61
2022/06/25 05:28:11;;;;;;;3.83;2.03;;;18.30;99.90;;;;;;5042335;28;20224;-61
2022/06/25 05:30:41;;;;;;;2.13;1.93;;;18.20;99.90;;;;;;5039861;28;20645;-61
2022/06/25 05:33:10;;;;;;;3.70;1.90;;;18.30;99.90;;;;;;5045282;28;20195;-61
2022/06/25 05:35:38;;;;;;;3.90;1.90;;;18.20;99.90;;;;;;5040836;28;20286;-61
2022/06/25 05:38:07;;;;;;;9.33;2.00;;;18.20;99.90;;;;;;5043837;28;20231;-61
2022/06/25 05:40:36;;;;;;;2.00;1.70;;;18.30;99.90;;;;;;5058574;28;20654;-61
2022/06/25 05:43:05;;;;;;;3.70;1.90;;;18.30;99.90;;;;;;5025268;28;20287;-61
2022/06/25 05:45:33;;;;;;;1.97;1.83;;;18.30;99.90;;;;;;5075469;28;20224;-61
2022/06/25 05:48:04;;;;;;;3.83;1.90;;;18.30;99.90;;;;;;5039119;28;20239;-61
2022/06/25 05:50:33;;;;;;;1.77;1.67;;;18.30;99.90;;;;;;5047425;28;20307;-61
2022/06/25 05:53:01;;;;;;;7.70;1.80;;;18.30;99.90;;;;;;5039101;28;20543;-61
2022/06/25 05:55:29;;;;;;;3.53;1.80;;;18.40;99.90;;;;;;5038601;28;20196;-61
2022/06/25 05:57:58;;;;;;;3.97;1.80;;;18.40;99.90;;;;;;5042395;28;20185;-61
2022/06/25 06:00:27;;;;;;;2.47;1.90;;;18.40;99.90;;;;;;5065288;28;20196;-61
2022/06/25 06:02:55;;;;;;;2.57;1.90;;;18.40;99.90;;;;;;5042201;28;20752;-61
2022/06/25 06:05:25;;;;;;;4.00;1.97;;;18.50;99.90;;;;;;5037632;28;20199;-61
2022/06/25 06:07:54;;;;;;;5.87;2.00;;;18.50;99.90;;;;;;5039327;28;20242;-61
2022/06/25 06:10:22;;;;;;;2.20;2.00;;;18.40;99.90;;;;;;5043422;28;20220;-61
2022/06/25 06:12:50;;;;;;;2.40;2.20;;;18.30;99.90;;;;;;5043437;28;20200;-61
2022/06/25 06:15:19;;;;;;;3.37;1.90;;;18.30;99.90;;;;;;5039064;28;20191;-61
2022/06/25 06:17:47;;;;;;;4.33;1.97;;;18.30;99.90;;;;;;5072736;28;20223;-61
2022/06/25 06:20:16;;;;;;;3.20;2.10;;;18.40;99.90;;;;;;5045297;28;20200;-61
2022/06/25 06:22:45;;;;;;;2.57;2.07;;;18.30;99.90;;;;;;5039239;28;20279;-61
2022/06/25 06:25:14;;;;;;;7.10;2.20;;;18.30;99.90;;;;;;5041180;28;20200;-61
2022/06/25 06:27:42;;;;;;;2.40;2.00;;;18.30;99.90;;;;;;5049455;28;20208;-61
2022/06/25 06:30:12;;;;;;;2.10;2.00;;;18.40;99.90;;;;;;5045134;28;20193;-61
2022/06/25 06:32:40;;;;;;;3.43;2.37;;;18.40;99.90;;;;;;5036641;28;20280;-61
2022/06/25 06:35:09;;;;;;;4.63;2.30;;;18.50;99.90;;;;;;5040205;28;20193;-61
2022/06/25 06:37:37;;;;;;;4.93;2.10;;;18.50;99.90;;;;;;5041096;28;20200;-61
2022/06/25 06:40:09;;;;;;;4.30;2.13;;;18.40;99.90;;;;;;5043372;28;20726;-61
2022/06/25 06:42:38;;;;;;;4.83;2.30;;;18.40;99.90;;;;;;5043063;28;20218;-61
2022/06/25 06:45:07;;;;;;;2.87;2.33;;;18.40;99.90;;;;;;5042641;28;20192;-61
2022/06/25 06:47:36;;;;;;;4.77;2.00;;;18.40;99.90;;;;;;5045832;28;20323;-61
2022/06/25 06:50:06;;;;;;;5.43;2.10;;;18.50;99.90;;;;;;5047274;28;20698;-61
2022/06/25 06:52:34;;;;;;;6.17;2.23;;;18.50;99.90;;;;;;5036717;28;20200;-61
2022/06/25 06:55:04;;;;;;;2.17;1.90;;;18.60;99.90;;;;;;5056462;28;20211;-61
2022/06/25 06:57:35;;;;;;;4.80;2.50;;;18.60;99.90;;;;;;5037508;28;20185;-61
2022/06/25 07:00:14;;;;;;;3.23;2.00;;;18.60;99.90;;;;;;5047976;28;20211;-61
2022/06/25 07:02:42;;;;;;;3.73;2.20;;;18.60;99.90;;;;;;5048224;28;20235;-61
2022/06/25 07:05:10;;;;;;;5.57;2.70;;;18.70;99.90;;;;;;5044909;28;20266;-60
2022/06/25 07:07:39;;;;;;;5.13;2.23;;;18.60;99.90;;;;;;5047173;28;20212;-61
2022/06/25 07:10:08;;;;;;;4.90;2.47;;;18.60;99.90;;;;;;5047246;28;20235;-61
2022/06/25 07:12:38;;;;;;;7.53;2.30;;;18.50;99.90;;;;;;5044966;28;20193;-61
2022/06/25 07:15:07;;;;;;;4.40;2.13;;;18.40;99.90;;;;;;5043588;28;20291;-61
2022/06/25 07:17:36;;;;;;;4.57;2.57;;;18.50;99.90;;;;;;5039692;28;20183;-61
2022/06/25 07:20:06;;;;;;;2.93;2.10;;;18.50;99.90;;;;;;5046352;28;20203;-61
2022/06/25 07:22:34;;;;;;;4.33;2.20;;;18.60;99.90;;;;;;5037956;28;21124;-60
2022/06/25 07:25:03;;;;;;;6.70;2.63;;;18.60;99.90;;;;;;5041179;28;20275;-60
2022/06/25 07:27:32;;;;;;;5.10;2.30;;;18.70;99.90;;;;;;5031821;28;20220;-61
2022/06/25 07:30:02;;;;;;;4.83;1.70;;;18.70;99.90;;;;;;5041435;28;20200;-60
2022/06/25 07:32:30;;;;;;;3.87;1.70;;;18.50;99.90;;;;;;5040541;28;20200;-60
2022/06/25 07:34:58;;;;;;;4.50;1.87;;;18.10;99.90;;;;;;5041723;28;20212;-60
2022/06/25 07:37:28;;;;;;;3.43;2.10;;;17.80;99.90;;;;;;5042597;28;20263;-60
2022/06/25 07:39:57;;;;;;;5.20;1.97;;;17.60;99.90;;;;;;5037618;28;20606;-60
2022/06/25 07:42:26;;;;;;;3.10;1.70;;;17.50;99.90;;;;;;5042153;28;20203;-60
2022/06/25 07:44:54;;;;;;;3.23;1.80;;;17.30;99.90;;;;;;5041033;28;20933;-60
2022/06/25 07:47:24;;;;;;;4.87;2.00;;;17.30;99.90;;;;;;5073872;28;20229;-60
2022/06/25 07:52:38;;;;;;;3.07;2.30;;;17.20;99.90;;;;;;5040311;28;20295;-60
2022/06/25 07:55:08;;;;;;;4.93;2.40;;;17.10;99.90;;;;;;5040710;28;20697;-61
2022/06/25 07:57:36;;;;;;;2.07;1.97;;;17.00;99.90;;;;;;5040444;28;20209;-60
2022/06/25 08:00:05;;;;;;;3.40;2.40;;;16.90;99.90;;;;;;5071811;28;20201;-60
2022/06/25 08:02:35;;;;;;;5.63;2.50;;;17.00;99.90;;;;;;5041633;28;20221;-60
2022/06/25 08:05:04;;;;;;;2.30;2.10;;;17.00;99.90;;;;;;5036263;28;20289;-60
2022/06/25 08:07:32;;;;;;;6.43;2.40;;;17.20;99.90;;;;;;5039073;28;20198;-60
2022/06/25 08:10:01;;;;;;;2.50;2.30;;;17.40;99.90;;;;;;5040447;28;20259;-60
2022/06/25 08:12:29;;;;;;;2.20;1.93;;;17.40;99.90;;;;;;5038097;28;20192;-60
2022/06/25 08:14:59;;;;;;;2.33;2.23;;;17.50;99.90;;;;;;5041434;28;20197;-60
2022/06/25 08:17:28;;;;;;;2.80;2.30;;;17.70;99.90;;;;;;5039035;28;20202;-60
2022/06/25 08:19:57;;;;;;;2.47;2.13;;;17.80;99.90;;;;;;5040652;28;20254;-61
2022/06/25 08:22:26;;;;;;;2.13;2.03;;;17.90;99.90;;;;;;5043364;28;20257;-61
2022/06/25 08:24:54;;;;;;;2.03;1.90;;;18.00;99.90;;;;;;5037827;28;20283;-60
2022/06/25 08:27:25;;;;;;;3.13;2.10;;;18.00;99.90;;;;;;5043574;28;20219;-60
2022/06/25 08:29:53;;;;;;;2.33;2.10;;;18.00;99.90;;;;;;5036899;28;20687;-60
2022/06/25 08:32:22;;;;;;;2.17;1.97;;;18.00;99.90;;;;;;5036176;28;20292;-61
2022/06/25 08:34:50;;;;;;;4.70;2.33;;;18.00;99.90;;;;;;5040486;28;20298;-61
2022/06/25 08:37:20;;;;;;;2.40;2.13;;;18.00;99.90;;;;;;5043446;28;20205;-61
2022/06/25 08:39:48;;;;;;;2.53;2.33;;;18.10;99.90;;;;;;5042042;28;20275;-61
2022/06/25 08:42:16;;;;;;;5.07;2.03;;;18.10;99.90;;;;;;5036034;28;20199;-61
2022/06/25 08:49:05;;;;;;;2.37;2.20;;;18.40;99.90;;;;;;5032737;28;20239;-60
2022/06/25 08:51:35;;;;;;;2.00;1.90;;;18.70;99.90;;;;;;5011637;28;20949;-61
2022/06/25 08:54:09;;;;;;;3.57;2.47;;;18.80;99.90;;;;;;5023490;28;21074;-61
2022/06/25 08:56:37;;;;;;;2.40;2.20;;;19.10;99.90;;;;;;5026180;28;20650;-61
2022/06/25 08:59:06;;;;;;;7.17;2.57;;;19.50;99.90;;;;;;5010042;28;20206;-61
2022/06/25 09:01:34;;;;;;;2.03;1.93;;;19.70;99.90;;;;;;5006773;28;20198;-61
2022/06/25 09:04:02;;;;;;;4.03;1.90;;;19.70;99.90;;;;;;5028930;28;20213;-61
2022/06/25 09:06:31;;;;;;;2.50;1.93;;;19.70;99.90;;;;;;5030612;28;20197;-61
2022/06/25 09:09:12;;;;;;;1.97;1.80;;;19.90;99.90;;;;;;5030328;28;20244;-61
2022/06/25 09:11:54;;;;;;;3.50;1.80;;;20.30;99.90;;;;;;5027222;28;20223;-61
2022/06/25 09:14:25;;;;;;;2.67;1.60;;;20.40;99.90;;;;;;5029651;28;20200;-61
2022/06/25 09:16:58;;;;;;;1.70;1.60;;;20.60;99.90;;;;;;5032441;28;20332;-61
2022/06/25 09:19:30;;;;;;;1.77;1.67;;;20.90;99.90;;;;;;5047140;28;20193;-61
2022/06/25 09:21:59;;;;;;;3.47;1.60;;;21.10;99.90;;;;;;5048810;28;20199;-61
2022/06/25 09:24:48;;;;;;;2.50;1.83;;;21.00;99.90;;;;;;5049296;28;20266;-61
2022/06/25 09:27:20;;;;;;;1.70;1.60;;;20.90;99.90;;;;;;5046475;28;20600;-61
2022/06/25 09:29:50;;;;;;;3.17;1.90;;;21.20;99.90;;;;;;5046655;28;20245;-61
2022/06/25 09:32:19;;;;;;;2.47;1.37;;;21.20;99.90;;;;;;5047204;28;20212;-61
2022/06/25 09:34:47;;;;;;;1.73;1.63;;;21.20;99.90;;;;;;5045106;28;20698;-61
2022/06/25 09:37:22;;;;;;;3.93;1.77;;;21.30;99.90;;;;;;5047843;28;20738;-61
2022/06/25 09:39:53;;;;;;;2.50;1.40;;;21.40;99.90;;;;;;5047717;28;20218;-61
2022/06/25 09:42:27;;;;;;;2.73;1.60;;;21.50;99.90;;;;;;5048239;28;20211;-61
2022/06/25 09:45:04;;;;;;;1.60;1.50;;;21.70;99.90;;;;;;5046956;28;22212;-61
2022/06/25 09:47:36;;;;;;;2.53;2.00;;;22.00;99.90;;;;;;5079115;28;20201;-61
2022/06/25 09:50:13;;;;;;;2.93;1.20;;;22.10;99.90;;;;;;5075910;28;20688;-61
2022/06/25 09:52:52;;;;;;;1.50;1.40;;;22.20;99.90;;;;;;5044625;28;20229;-61
2022/06/25 09:55:24;;;;;;;2.07;1.57;;;22.40;99.90;;;;;;5047348;28;20296;-61
2022/06/25 09:57:53;;;;;;;1.40;1.30;;;22.30;99.90;;;;;;5050557;28;20211;-62
2022/06/25 10:00:23;;;;;;;1.90;1.40;;;22.20;99.90;;;;;;5049056;28;22297;-61
2022/06/25 10:03:17;;;;;;;2.37;1.40;;;22.10;99.90;;;;;;5045273;28;20200;-60
2022/06/25 10:05:46;;;;;;;3.47;1.60;;;21.90;99.90;;;;;;5038626;28;20247;-61
2022/06/25 10:08:18;;;;;;;2.40;1.53;;;21.90;99.90;;;;;;5041678;28;20202;-61
2022/06/25 10:10:53;;;;;;;1.60;1.50;;;21.90;99.90;;;;;;5041182;28;22420;-61
2022/06/25 10:13:22;;;;;;;4.47;1.70;;;22.00;99.90;;;;;;5043266;28;20209;-61
2022/06/25 10:15:51;;;;;;;1.50;1.40;;;22.20;99.90;;;;;;5045351;28;20303;-61
2022/06/25 10:18:20;;;;;;;3.47;1.50;;;22.20;99.90;;;;;;5045475;28;20558;-61
2022/06/25 10:20:49;;;;;;;4.47;1.63;;;22.20;99.90;;;;;;5045925;28;20218;-61
2022/06/25 10:23:18;;;;;;;2.43;1.87;;;22.10;99.90;;;;;;5050067;28;20280;-61
2022/06/25 10:25:47;;;;;;;1.70;1.60;;;22.10;99.90;;;;;;5043325;28;20278;-61
2022/06/25 10:28:25;;;;;;;2.03;1.60;;;22.30;99.90;;;;;;5047444;28;20674;-61
2022/06/25 10:30:56;;;;;;;3.93;1.67;;;22.50;99.90;;;;;;5059970;28;20217;-61
2022/06/25 10:33:26;;;;;;;1.70;1.37;;;22.80;99.90;;;;;;5045133;28;20195;-61
2022/06/25 10:35:58;;;;;;;1.67;1.57;;;22.90;99.90;;;;;;5044968;28;20228;-61
2022/06/25 10:38:27;;;;;;;2.27;1.90;;;22.60;99.90;;;;;;5047415;28;20213;-61
2022/06/25 10:40:57;;;;;;;2.50;1.40;;;22.60;99.90;;;;;;5043694;28;20200;-61
2022/06/25 10:43:42;;;;;;;1.20;1.20;;;22.90;99.90;;;;;;5045109;28;20283;-61
2022/06/25 10:46:22;;;;;;;3.17;1.57;;;23.20;99.90;;;;;;5047179;28;20206;-61
2022/06/25 10:48:53;;;;;;;1.33;1.33;;;23.40;99.90;;;;;;5045993;28;20206;-60
2022/06/25 10:51:30;;;;;;;1.40;1.30;;;23.50;99.90;;;;;;5046558;28;20616;-61
2022/06/25 10:53:59;;;;;;;1.63;1.30;;;23.30;99.90;;;;;;5045038;28;20546;-61
2022/06/25 10:56:32;;;;;;;3.80;1.50;;;23.20;99.90;;;;;;5046361;28;20199;-61
2022/06/25 10:59:02;;;;;;;1.80;1.53;;;23.10;99.90;;;;;;5041830;28;21988;-61
2022/06/25 11:01:32;;;;;;;1.70;1.57;;;23.00;99.90;;;;;;5046763;28;20917;-61
2022/06/25 11:04:07;;;;;;;1.70;1.57;;;22.70;99.90;;;;;;5038315;28;20194;-61
2022/06/25 11:06:38;;;;;;;1.63;1.40;;;22.50;99.90;;;;;;5045226;28;20253;-61
2022/06/25 11:09:13;;;;;;;1.67;1.63;;;22.30;99.90;;;;;;5048823;28;20266;-61
2022/06/25 11:11:42;;;;;;;1.63;1.53;;;22.00;99.90;;;;;;5046132;28;20192;-61
2022/06/25 11:14:19;;;;;;;2.13;1.60;;;21.90;99.90;;;;;;5020393;28;20237;-61
2022/06/25 11:16:48;;;;;;;2.50;1.30;;;21.80;99.90;;;;;;5045220;28;20208;-61
2022/06/25 11:19:17;;;;;;;2.37;1.50;;;21.80;99.90;;;;;;5046314;28;20221;-61
2022/06/25 11:21:46;;;;;;;3.20;1.90;;;21.70;99.90;;;;;;5046579;28;20200;-61
2022/06/25 11:24:17;;;;;;;3.17;1.60;;;21.80;99.90;;;;;;5044157;28;20194;-61
2022/06/25 11:29:38;;;;;;;4.37;1.63;;;21.70;99.90;;;;;;5045487;28;20185;-61
2022/06/25 11:32:09;;;;;;;2.27;1.80;;;21.70;99.90;;;;;;5039135;28;20292;-61
2022/06/25 11:34:38;;;;;;;2.20;1.77;;;21.80;99.90;;;;;;5045540;28;20188;-61
2022/06/25 11:37:09;;;;;;;2.67;1.80;;;21.80;99.90;;;;;;5045740;28;20197;-61
2022/06/25 11:39:38;;;;;;;2.23;1.83;;;21.60;99.90;;;;;;5045034;28;20524;-61
2022/06/25 11:42:10;;;;;;;4.17;2.10;;;21.50;99.90;;;;;;5046513;28;20315;-61
2022/06/25 11:44:42;;;;;;;3.27;2.10;;;21.50;99.90;;;;;;5043360;28;20196;-61
2022/06/25 11:47:13;;;;;;;2.67;1.80;;;21.40;99.90;;;;;;5044592;28;21227;-61
2022/06/25 11:49:43;;;;;;;2.27;2.07;;;21.20;99.90;;;;;;5046665;28;20233;-61
2022/06/25 11:52:13;;;;;;;3.93;2.13;;;21.20;99.90;;;;;;5045758;28;20254;-61
2022/06/25 11:54:43;;;;;;;3.90;2.33;;;21.10;99.90;;;;;;5045306;28;20296;-61
2022/06/25 11:57:17;;;;;;;2.47;2.00;;;21.20;99.90;;;;;;5045166;28;20283;-61
2022/06/25 11:59:47;;;;;;;2.73;2.53;;;21.30;99.90;;;;;;5039524;28;20619;-61
2022/06/25 12:02:16;;;;;;;4.37;2.53;;;21.60;99.90;;;;;;5044211;28;20220;-61
2022/06/25 12:04:53;;;;;;;3.30;2.40;;;22.00;99.90;;;;;;5038725;28;20196;-62
2022/06/25 12:07:25;;;;;;;3.20;2.20;;;22.20;99.90;;;;;;5042229;28;20196;-61
2022/06/25 12:09:56;;;;;;;5.13;2.60;;;22.30;99.90;;;;;;5040348;28;20220;-61
2022/06/25 12:12:25;;;;;;;2.50;2.30;;;22.40;99.90;;;;;;5045189;28;20571;-61
2022/06/25 12:14:56;;;;;;;2.47;2.10;;;22.50;99.90;;;;;;5045131;28;20279;-61
2022/06/25 12:17:32;;;;;;;2.67;2.47;;;22.50;99.90;;;;;;5043876;28;20210;-61
2022/06/25 12:20:07;;;;;;;3.87;2.30;;;22.40;99.90;;;;;;5045087;28;20659;-61
2022/06/25 12:22:38;;;;;;;2.73;2.40;;;22.20;99.90;;;;;;5042920;28;20232;-61
2022/06/25 12:25:08;;;;;;;3.00;2.73;;;22.10;99.90;;;;;;5043866;28;20193;-61
2022/06/25 12:27:45;;;;;;;5.63;3.00;;;22.10;99.90;;;;;;5043668;28;20542;-61
2022/06/25 12:30:22;;;;;;;2.83;2.50;;;22.10;99.90;;;;;;5049734;28;20216;-61
2022/06/25 12:32:51;;;;;;;4.10;2.80;;;22.00;99.90;;;;;;5051670;28;20262;-61
2022/06/25 12:35:21;;;;;;;3.30;2.90;;;22.00;99.90;;;;;;5047407;28;20271;-61
2022/06/25 12:38:01;;;;;;;3.60;3.00;;;22.10;99.90;;;;;;5048956;28;20207;-61
2022/06/25 12:40:31;;;;;;;3.33;2.87;;;22.10;99.90;;;;;;5043953;28;20227;-61
2022/06/25 12:43:01;;;;;;;3.13;2.53;;;22.10;99.90;;;;;;5042806;28;20252;-61
2022/06/25 12:45:33;;;;;;;3.23;2.80;;;22.10;99.90;;;;;;5048739;28;20207;-61
2022/06/25 12:48:02;;;;;;;3.17;2.87;;;22.10;99.90;;;;;;5050985;28;20204;-61
2022/06/25 12:50:32;;;;;;;3.80;2.73;;;22.10;99.90;;;;;;5048665;28;20311;-61
2022/06/25 12:53:08;;;;;;;4.40;3.07;;;22.10;99.90;;;;;;5051318;28;20664;-61
2022/06/25 12:55:37;;;;;;;3.40;2.77;;;22.00;99.90;;;;;;5053216;28;20216;-61
2022/06/25 12:58:08;;;;;;;2.57;2.40;;;21.90;99.90;;;;;;5048458;28;20303;-61
2022/06/25 13:00:38;;;;;;;2.50;2.10;;;22.00;99.90;;;;;;5051511;28;20502;-61
2022/06/25 13:03:14;;;;;;;2.33;2.20;;;21.90;99.90;;;;;;5044305;28;20204;-61
2022/06/25 13:05:43;;;;;;;2.77;2.60;;;21.90;99.90;;;;;;5080373;28;20205;-61
2022/06/25 13:08:11;;;;;;;3.60;2.10;;;21.90;99.90;;;;;;5079791;28;20199;-61
2022/06/25 13:10:42;;;;;;;2.40;2.20;;;21.90;99.90;;;;;;5049760;28;20225;-61
2022/06/25 13:13:11;;;;;;;3.93;2.30;;;21.80;99.90;;;;;;5079278;28;20771;-61
2022/06/25 13:15:41;;;;;;;2.73;2.20;;;21.70;99.90;;;;;;5051347;28;20185;-61
2022/06/25 13:18:09;;;;;;;3.03;1.87;;;21.70;99.90;;;;;;5048709;28;20276;-61
2022/06/25 13:20:38;;;;;;;2.40;2.20;;;21.60;99.90;;;;;;5050995;28;20224;-61
2022/06/25 13:23:06;;;;;;;2.50;2.30;;;21.70;99.90;;;;;;5048617;28;20270;-61
2022/06/25 13:25:34;;;;;;;2.60;2.40;;;21.60;99.90;;;;;;5047148;28;20267;-61
2022/06/25 13:28:09;;;;;;;2.30;2.07;;;21.50;99.90;;;;;;5046743;28;20196;-61